Terminal Aerodrome Forecast
Issued by NWS

Home | Current Version | Previous Version | Text Only | Print | Product List | Glossary On
Versions: 1 2 3 4 5 6 7 8 9 10 11 12 13 14 15 16 17 18 19 20 21 22 23 24 25 26 27
000
FTUS44 KLZK 241252 CCA
TAFBPK
TAF COR
KBPK 241252Z 2413/2512 VRB04KT 6SM BR VCSH SCT003 OVC012
      TEMPO 2413/2416 2SM -SHRA BR OVC003
     FM241600 14006KT 3SM SHRA BR VCTS OVC007CB
     FM242200 22007KT P6SM VCSH OVC012
     FM250200 26009KT P6SM SCT020 BKN250
     FM250800 28006KT P6SM SCT250=

USA.gov is the U.S. government's official web portal to all federal, state and local government web resources and services.